sensor_id;sensor_type;location;lat;lon;timestamp;pressure;altitude;pressure_sealevel;temperature;humidity
71643;BME280;59438;45.014;39.006;2023-02-03T00:00:12;101499.00;;;3.00;72.72
71643;BME280;59438;45.014;39.006;2023-02-03T00:02:40;101509.41;;;3.03;73.31
71643;BME280;59438;45.014;39.006;2023-02-03T00:05:07;101509.41;;;3.06;72.73
71643;BME280;59438;45.014;39.006;2023-02-03T00:07:36;101509.44;;;3.09;72.64
71643;BME280;59438;45.014;39.006;2023-02-03T00:10:05;101461.72;;;2.87;73.15
71643;BME280;59438;45.014;39.006;2023-02-03T00:12:32;101512.06;;;3.12;72.82
71643;BME280;59438;45.014;39.006;2023-02-03T00:14:59;101504.25;;;3.11;72.37
71643;BME280;59438;45.014;39.006;2023-02-03T00:17:25;101473.84;;;2.90;73.03
71643;BME280;59438;45.014;39.006;2023-02-03T00:19:53;101503.38;;;3.09;73.00
71643;BME280;59438;45.014;39.006;2023-02-03T00:22:20;101498.16;;;3.06;72.88
71643;BME280;59438;45.014;39.006;2023-02-03T00:24:46;101501.63;;;3.03;72.91
71643;BME280;59438;45.014;39.006;2023-02-03T00:27:12;101468.63;;;2.87;72.89
71643;BME280;59438;45.014;39.006;2023-02-03T00:29:39;101496.34;;;2.91;73.54
71643;BME280;59438;45.014;39.006;2023-02-03T00:32:05;101492.91;;;2.96;73.21
71643;BME280;59438;45.014;39.006;2023-02-03T00:34:31;101450.34;;;2.70;73.44
71643;BME280;59438;45.014;39.006;2023-02-03T00:36:59;101510.22;;;2.97;73.97
71643;BME280;59438;45.014;39.006;2023-02-03T00:39:25;101476.38;;;2.82;73.33
71643;BME280;59438;45.014;39.006;2023-02-03T00:41:52;101481.59;;;2.87;73.25
71643;BME280;59438;45.014;39.006;2023-02-03T00:44:18;101501.56;;;2.98;73.43
71643;BME280;59438;45.014;39.006;2023-02-03T00:46:44;101464.19;;;2.70;73.34
71643;BME280;59438;45.014;39.006;2023-02-03T00:49:11;101499.84;;;2.97;73.50
71643;BME280;59438;45.014;39.006;2023-02-03T00:51:37;101480.72;;;2.86;73.15
71643;BME280;59438;45.014;39.006;2023-02-03T00:54:05;101475.53;;;2.83;73.78
71643;BME280;59438;45.014;39.006;2023-02-03T00:56:31;101499.81;;;2.93;73.60
71643;BME280;59438;45.014;39.006;2023-02-03T00:58:58;101491.13;;;2.85;73.71
71643;BME280;59438;45.014;39.006;2023-02-03T01:01:24;101480.72;;;2.83;73.79
71643;BME280;59438;45.014;39.006;2023-02-03T01:03:50;101494.59;;;2.87;73.66
71643;BME280;59438;45.014;39.006;2023-02-03T01:06:18;101482.47;;;2.87;74.37
71643;BME280;59438;45.014;39.006;2023-02-03T01:08:45;101445.97;;;2.66;74.33
71643;BME280;59438;45.014;39.006;2023-02-03T01:11:15;101431.25;;;2.60;74.81
71643;BME280;59438;45.014;39.006;2023-02-03T01:13:42;101486.75;;;2.83;74.43
71643;BME280;59438;45.014;39.006;2023-02-03T01:16:09;101472.94;;;2.83;74.82
71643;BME280;59438;45.014;39.006;2023-02-03T01:18:36;101426.91;;;2.59;74.76
71643;BME280;59438;45.014;39.006;2023-02-03T01:21:07;101478.97;;;2.83;75.10
71643;BME280;59438;45.014;39.006;2023-02-03T01:23:34;101484.19;;;2.85;75.00
71643;BME280;59438;45.014;39.006;2023-02-03T01:26:02;101452.03;;;2.65;75.14
71643;BME280;59438;45.014;39.006;2023-02-03T01:28:31;101468.63;;;2.85;75.24
71643;BME280;59438;45.014;39.006;2023-02-03T01:31:00;101464.31;;;2.89;75.09
71643;BME280;59438;45.014;39.006;2023-02-03T01:33:33;101469.47;;;2.82;75.39
71643;BME280;59438;45.014;39.006;2023-02-03T01:35:59;101451.28;;;2.81;75.18
71643;BME280;59438;45.014;39.006;2023-02-03T01:38:25;101462.56;;;2.88;75.58
71643;BME280;59438;45.014;39.006;2023-02-03T01:40:52;101458.25;;;2.88;75.40
71643;BME280;59438;45.014;39.006;2023-02-03T01:43:35;101447.81;;;2.82;77.26
71643;BME280;59438;45.014;39.006;2023-02-03T01:46:03;101464.31;;;2.89;75.49
71643;BME280;59438;45.014;39.006;2023-02-03T01:48:31;101470.38;;;2.92;75.71
71643;BME280;59438;45.014;39.006;2023-02-03T01:51:01;101468.66;;;2.94;76.19
71643;BME280;59438;45.014;39.006;2023-02-03T01:53:29;101455.63;;;2.83;75.35
71643;BME280;59438;45.014;39.006;2023-02-03T01:55:57;101472.13;;;2.93;75.67
71643;BME280;59438;45.014;39.006;2023-02-03T01:58:25;101422.66;;;2.69;75.08
71643;BME280;59438;45.014;39.006;2023-02-03T02:00:55;101453.00;;;2.77;75.75
71643;BME280;59438;45.014;39.006;2023-02-03T02:03:24;101461.69;;;2.84;75.98
71643;BME280;59438;45.014;39.006;2023-02-03T02:05:55;101472.16;;;2.98;75.92
71643;BME280;59438;45.014;39.006;2023-02-03T02:08:24;101481.69;;;2.99;74.98
71643;BME280;59438;45.014;39.006;2023-02-03T02:10:50;101436.53;;;2.71;75.40
71643;BME280;59438;45.014;39.006;2023-02-03T02:13:18;101479.97;;;2.99;75.77
71643;BME280;59438;45.014;39.006;2023-02-03T02:15:52;101486.88;;;3.00;76.26
71643;BME280;59438;45.014;39.006;2023-02-03T02:18:40;101420.03;;;2.66;76.90
71643;BME280;59438;45.014;39.006;2023-02-03T02:24:22;101466.97;;;2.98;76.12
71643;BME280;59438;45.014;39.006;2023-02-03T02:27:01;101475.63;;;2.98;76.25
71643;BME280;59438;45.014;39.006;2023-02-03T02:30:01;101474.72;;;2.96;76.44
71643;BME280;59438;45.014;39.006;2023-02-03T02:32:43;101459.91;;;2.80;76.03
71643;BME280;59438;45.014;39.006;2023-02-03T02:35:19;101442.56;;;2.71;75.94
71643;BME280;59438;45.014;39.006;2023-02-03T02:37:52;101446.00;;;2.69;75.36
71643;BME280;59438;45.014;39.006;2023-02-03T02:40:25;101479.88;;;2.87;75.81
71643;BME280;59438;45.014;39.006;2023-02-03T02:43:05;101423.44;;;2.57;76.07
71643;BME280;59438;45.014;39.006;2023-02-03T02:45:44;101475.47;;;2.80;75.92
71643;BME280;59438;45.014;39.006;2023-02-03T02:48:19;101445.94;;;2.58;75.57
71643;BME280;59438;45.014;39.006;2023-02-03T02:50:51;101475.44;;;2.71;75.53
71643;BME280;59438;45.014;39.006;2023-02-03T02:53:20;101479.72;;;2.64;75.41
71643;BME280;59438;45.014;39.006;2023-02-03T02:55:50;101494.44;;;2.68;75.25
71643;BME280;59438;45.014;39.006;2023-02-03T02:58:18;101484.88;;;2.66;75.49
71643;BME280;59438;45.014;39.006;2023-02-03T03:00:45;101462.25;;;2.43;75.84
71643;BME280;59438;45.014;39.006;2023-02-03T03:03:15;101491.81;;;2.62;75.55
71643;BME280;59438;45.014;39.006;2023-02-03T03:05:43;101340.66;;;1.71;75.61
71643;BME280;59438;45.014;39.006;2023-02-03T03:08:15;101448.34;;;2.33;75.67
71643;BME280;59438;45.014;39.006;2023-02-03T03:10:44;101485.66;;;2.49;75.23
71643;BME280;59438;45.014;39.006;2023-02-03T03:13:24;101466.50;;;2.38;75.50
71643;BME280;59438;45.014;39.006;2023-02-03T03:15:52;101469.22;;;2.47;76.36
71643;BME280;59438;45.014;39.006;2023-02-03T03:18:23;101476.09;;;2.44;75.96
71643;BME280;59438;45.014;39.006;2023-02-03T03:20:54;101452.59;;;2.27;75.64
71643;BME280;59438;45.014;39.006;2023-02-03T03:23:26;101483.00;;;2.43;76.40
71643;BME280;59438;45.014;39.006;2023-02-03T03:25:58;101480.41;;;2.45;76.22
71643;BME280;59438;45.014;39.006;2023-02-03T03:28:31;101390.09;;;1.94;76.28
71643;BME280;59438;45.014;39.006;2023-02-03T03:30:58;101431.81;;;2.20;75.82
71643;BME280;59438;45.014;39.006;2023-02-03T03:33:26;101482.16;;;2.49;76.29
71643;BME280;59438;45.014;39.006;2023-02-03T03:35:57;101483.91;;;2.48;76.51
71643;BME280;59438;45.014;39.006;2023-02-03T03:38:31;101486.53;;;2.51;76.48
71643;BME280;59438;45.014;39.006;2023-02-03T03:41:05;101446.53;;;2.28;76.48
71643;BME280;59438;45.014;39.006;2023-02-03T03:43:36;101499.53;;;2.56;76.51
71643;BME280;59438;45.014;39.006;2023-02-03T03:46:09;101499.53;;;2.59;76.72
71643;BME280;59438;45.014;39.006;2023-02-03T03:48:43;101509.94;;;2.60;76.82
71643;BME280;59438;45.014;39.006;2023-02-03T03:51:18;101436.19;;;2.29;76.51
71643;BME280;59438;45.014;39.006;2023-02-03T03:53:49;101470.09;;;2.49;76.07
71643;BME280;59438;45.014;39.006;2023-02-03T03:56:20;101497.84;;;2.66;75.87
71643;BME280;59438;45.014;39.006;2023-02-03T03:58:50;101492.69;;;2.67;75.96
71643;BME280;59438;45.014;39.006;2023-02-03T04:01:18;101493.56;;;2.68;76.28
71643;BME280;59438;45.014;39.006;2023-02-03T04:03:49;101397.13;;;2.06;75.98
71643;BME280;59438;45.014;39.006;2023-02-03T04:06:17;101496.16;;;2.68;75.85
71643;BME280;59438;45.014;39.006;2023-02-03T04:08:44;101482.31;;;2.64;75.58
71643;BME280;59438;45.014;39.006;2023-02-03T04:11:10;101490.13;;;2.69;75.78
71643;BME280;59438;45.014;39.006;2023-02-03T04:13:36;101488.38;;;2.69;75.87
71643;BME280;59438;45.014;39.006;2023-02-03T04:16:03;101481.47;;;2.68;76.05
71643;BME280;59438;45.014;39.006;2023-02-03T04:18:29;101483.19;;;2.68;75.74
71643;BME280;59438;45.014;39.006;2023-02-03T04:20:57;101471.91;;;2.66;76.31
71643;BME280;59438;45.014;39.006;2023-02-03T04:23:24;101471.94;;;2.64;75.82
71643;BME280;59438;45.014;39.006;2023-02-03T04:25:50;101472.78;;;2.61;75.50
71643;BME280;59438;45.014;39.006;2023-02-03T04:28:16;101445.81;;;2.42;75.87
71643;BME280;59438;45.014;39.006;2023-02-03T04:30:43;101462.34;;;2.54;75.88
71643;BME280;59438;45.014;39.006;2023-02-03T04:33:09;101435.38;;;2.33;75.77
71643;BME280;59438;45.014;39.006;2023-02-03T04:35:35;101444.06;;;2.37;76.12
71643;BME280;59438;45.014;39.006;2023-02-03T04:38:03;101444.88;;;2.36;75.89
71643;BME280;59438;45.014;39.006;2023-02-03T04:40:30;101433.63;;;2.31;76.33
71643;BME280;59438;45.014;39.006;2023-02-03T04:42:56;101442.16;;;2.19;76.14
71643;BME280;59438;45.014;39.006;2023-02-03T04:45:22;101414.34;;;2.01;75.85
71643;BME280;59438;45.014;39.006;2023-02-03T04:47:51;101466.41;;;2.26;76.29
71643;BME280;59438;45.014;39.006;2023-02-03T04:50:17;101474.19;;;2.27;76.26
71643;BME280;59438;45.014;39.006;2023-02-03T04:52:44;101481.09;;;2.28;76.63
71643;BME280;59438;45.014;39.006;2023-02-03T04:55:11;101475.94;;;2.28;76.25
71643;BME280;59438;45.014;39.006;2023-02-03T04:57:38;101480.25;;;2.28;76.47
71643;BME280;59438;45.014;39.006;2023-02-03T05:00:05;101481.97;;;2.27;76.69
71643;BME280;59438;45.014;39.006;2023-02-03T05:02:32;101483.72;;;2.27;76.19
71643;BME280;59438;45.014;39.006;2023-02-03T05:04:58;101477.63;;;2.26;75.86
71643;BME280;59438;45.014;39.006;2023-02-03T05:07:24;101480.25;;;2.28;75.92
71643;BME280;59438;45.014;39.006;2023-02-03T05:09:51;101485.41;;;2.25;75.87
71643;BME280;59438;45.014;39.006;2023-02-03T05:12:18;101477.47;;;2.09;76.37
71643;BME280;59438;45.014;39.006;2023-02-03T05:14:45;101500.97;;;2.25;76.11
71643;BME280;59438;45.014;39.006;2023-02-03T05:17:12;101506.19;;;2.28;76.16
71643;BME280;59438;45.014;39.006;2023-02-03T05:19:38;101472.31;;;2.11;76.17
71643;BME280;59438;45.014;39.006;2023-02-03T05:22:04;101495.84;;;2.32;76.09
71643;BME280;59438;45.014;39.006;2023-02-03T05:24:31;101402.88;;;1.77;76.04
71643;BME280;59438;45.014;39.006;2023-02-03T05:26:57;101454.16;;;2.11;75.84
71643;BME280;59438;45.014;39.006;2023-02-03T05:29:25;101482.94;;;2.37;76.19
71643;BME280;59438;45.014;39.006;2023-02-03T05:31:51;101463.03;;;2.33;75.98
71643;BME280;59438;45.014;39.006;2023-02-03T05:34:17;101473.44;;;2.40;76.54
71643;BME280;59438;45.014;39.006;2023-02-03T05:36:44;101476.06;;;2.42;76.17
71643;BME280;59438;45.014;39.006;2023-02-03T05:39:10;101464.84;;;2.45;76.35
71643;BME280;59438;45.014;39.006;2023-02-03T05:41:36;101428.38;;;2.23;76.09
71643;BME280;59438;45.014;39.006;2023-02-03T05:44:03;101424.94;;;2.26;76.38
71643;BME280;59438;45.014;39.006;2023-02-03T05:46:31;101454.50;;;2.46;76.32
71643;BME280;59438;45.014;39.006;2023-02-03T05:48:57;101462.25;;;2.46;76.10
71643;BME280;59438;45.014;39.006;2023-02-03T05:51:23;101461.38;;;2.44;76.14
71643;BME280;59438;45.014;39.006;2023-02-03T05:53:50;101397.97;;;2.05;76.09
71643;BME280;59438;45.014;39.006;2023-02-03T05:56:16;101463.97;;;2.44;75.99
71643;BME280;59438;45.014;39.006;2023-02-03T05:58:43;101473.56;;;2.53;76.16
71643;BME280;59438;45.014;39.006;2023-02-03T06:01:09;101446.66;;;2.40;76.40
71643;BME280;59438;45.014;39.006;2023-02-03T06:03:37;101479.66;;;2.58;76.76
71643;BME280;59438;45.014;39.006;2023-02-03T06:06:03;101470.19;;;2.61;76.31
71643;BME280;59438;45.014;39.006;2023-02-03T06:08:29;101418.06;;;2.31;75.97
71643;BME280;59438;45.014;39.006;2023-02-03T06:10:59;101442.34;;;2.42;76.15
71643;BME280;59438;45.014;39.006;2023-02-03T06:13:26;101443.25;;;2.46;76.15
71643;BME280;59438;45.014;39.006;2023-02-03T06:15:52;101458.84;;;2.52;75.67
71643;BME280;59438;45.014;39.006;2023-02-03T06:18:19;101461.56;;;2.64;76.18
71643;BME280;59438;45.014;39.006;2023-02-03T06:20:47;101426.03;;;2.54;76.25
71643;BME280;59438;45.014;39.006;2023-02-03T06:23:13;101417.31;;;2.49;76.25
71643;BME280;59438;45.014;39.006;2023-02-03T06:25:39;101477.19;;;2.78;75.88
71643;BME280;59438;45.014;39.006;2023-02-03T06:28:06;101472.03;;;2.76;75.67
71643;BME280;59438;45.014;39.006;2023-02-03T06:30:32;101450.34;;;2.71;76.30
71643;BME280;59438;45.014;39.006;2023-02-03T06:32:58;101453.84;;;2.78;75.99
71643;BME280;59438;45.014;39.006;2023-02-03T06:35:25;101473.84;;;2.94;75.82
71643;BME280;59438;45.014;39.006;2023-02-03T06:37:52;101348.84;;;2.20;76.29
71643;BME280;59438;45.014;39.006;2023-02-03T06:40:19;101431.31;;;2.71;75.82
71643;BME280;59438;45.014;39.006;2023-02-03T06:42:46;101456.53;;;2.87;75.97
71643;BME280;59438;45.014;39.006;2023-02-03T06:45:13;101435.78;;;2.90;75.61
71643;BME280;59438;45.014;39.006;2023-02-03T06:47:40;101463.59;;;3.14;75.51
71643;BME280;59438;45.014;39.006;2023-02-03T06:50:07;101438.44;;;3.02;75.50
71643;BME280;59438;45.014;39.006;2023-02-03T06:52:34;101462.75;;;3.18;75.63
71643;BME280;59438;45.014;39.006;2023-02-03T06:55:03;101400.28;;;2.88;75.89
71643;BME280;59438;45.014;39.006;2023-02-03T06:57:29;101448.03;;;3.19;75.65
71643;BME280;59438;45.014;39.006;2023-02-03T06:59:56;101403.00;;;3.11;75.48
71643;BME280;59438;45.014;39.006;2023-02-03T07:02:22;101431.69;;;3.32;75.44
71643;BME280;59438;45.014;39.006;2023-02-03T07:04:49;101432.56;;;3.36;75.70
71643;BME280;59438;45.014;39.006;2023-02-03T07:07:15;101407.41;;;3.22;75.39
71643;BME280;59438;45.014;39.006;2023-02-03T07:09:42;101438.66;;;3.42;75.38
71643;BME280;59438;45.014;39.006;2023-02-03T07:12:10;101445.59;;;3.45;75.43
71643;BME280;59438;45.014;39.006;2023-02-03T07:14:36;101419.53;;;3.28;75.28
71643;BME280;59438;45.014;39.006;2023-02-03T07:17:02;101405.72;;;3.37;75.55
71643;BME280;59438;45.014;39.006;2023-02-03T07:19:29;101358.91;;;3.17;75.01
71643;BME280;59438;45.014;39.006;2023-02-03T07:21:55;101389.22;;;3.27;75.19
71643;BME280;59438;45.014;39.006;2023-02-03T07:24:21;101374.50;;;3.20;75.61
71643;BME280;59438;45.014;39.006;2023-02-03T07:26:48;101455.19;;;3.66;75.39
71643;BME280;59438;45.014;39.006;2023-02-03T07:29:16;101417.06;;;3.57;75.15
71643;BME280;59438;45.014;39.006;2023-02-03T07:31:42;101360.63;;;3.15;75.16
71643;BME280;59438;45.014;39.006;2023-02-03T07:34:09;101467.38;;;3.79;75.26
71643;BME280;59438;45.014;39.006;2023-02-03T07:36:35;101473.44;;;3.83;75.16
71643;BME280;59438;45.014;39.006;2023-02-03T07:39:02;101445.69;;;3.73;75.17
71643;BME280;59438;45.014;39.006;2023-02-03T07:41:28;101443.09;;;3.82;75.02
71643;BME280;59438;45.014;39.006;2023-02-03T07:43:55;101338.16;;;3.25;75.21
71643;BME280;59438;45.014;39.006;2023-02-03T07:46:23;101463.97;;;4.02;74.75
71643;BME280;59438;45.014;39.006;2023-02-03T07:48:50;101465.69;;;4.08;75.02
71643;BME280;59438;45.014;39.006;2023-02-03T07:51:16;101274.97;;;3.15;75.06
71643;BME280;59438;45.014;39.006;2023-02-03T07:53:43;101405.00;;;3.89;75.21
71643;BME280;59438;45.014;39.006;2023-02-03T07:56:09;101440.56;;;4.23;74.63
71643;BME280;59438;45.014;39.006;2023-02-03T07:58:36;101457.94;;;4.43;74.75
71643;BME280;59438;45.014;39.006;2023-02-03T08:01:09;101398.94;;;4.16;74.96
71643;BME280;59438;45.014;39.006;2023-02-03T08:03:37;101434.50;;;4.52;74.77
71643;BME280;59438;45.014;39.006;2023-02-03T08:06:04;101398.09;;;4.34;74.65
71643;BME280;59438;45.014;39.006;2023-02-03T08:08:30;101318.38;;;4.02;74.31
71643;BME280;59438;45.014;39.006;2023-02-03T08:10:57;101432.78;;;4.76;74.44
71643;BME280;59438;45.014;39.006;2023-02-03T08:13:23;101403.25;;;4.69;73.99
71643;BME280;59438;45.014;39.006;2023-02-03T08:15:50;101391.13;;;4.73;74.13
71643;BME280;59438;45.014;39.006;2023-02-03T08:18:17;101415.38;;;4.93;73.84
71643;BME280;59438;45.014;39.006;2023-02-03T08:20:45;101386.75;;;4.81;74.26
71643;BME280;59438;45.014;39.006;2023-02-03T08:23:12;101380.69;;;4.79;74.30
71643;BME280;59438;45.014;39.006;2023-02-03T08:25:38;101323.50;;;4.57;74.31
71643;BME280;59438;45.014;39.006;2023-02-03T08:28:04;101399.72;;;5.04;73.48
71643;BME280;59438;45.014;39.006;2023-02-03T08:30:31;101346.88;;;4.82;73.87
71643;BME280;59438;45.014;39.006;2023-02-03T08:32:57;101346.00;;;4.86;73.66
71643;BME280;59438;45.014;39.006;2023-02-03T08:35:24;101403.09;;;5.29;73.47
71643;BME280;59438;45.014;39.006;2023-02-03T08:37:52;101338.16;;;4.91;73.87
71643;BME280;59438;45.014;39.006;2023-02-03T08:40:18;101402.19;;;5.42;73.75
71643;BME280;59438;45.014;39.006;2023-02-03T08:42:45;101382.25;;;5.29;73.42
71643;BME280;59438;45.014;39.006;2023-02-03T08:45:11;101411.69;;;5.50;73.96
71643;BME280;59438;45.014;39.006;2023-02-03T08:47:38;101353.66;;;5.23;73.30
71643;BME280;59438;45.014;39.006;2023-02-03T08:50:06;101338.03;;;5.21;73.25
71643;BME280;59438;45.014;39.006;2023-02-03T08:52:33;101283.44;;;5.00;73.10
71643;BME280;59438;45.014;39.006;2023-02-03T08:55:01;101365.59;;;5.59;73.32
71643;BME280;59438;45.014;39.006;2023-02-03T08:57:31;101342.22;;;5.45;73.70
71643;BME280;59438;45.014;39.006;2023-02-03T08:59:58;101311.84;;;5.41;73.50
71643;BME280;59438;45.014;39.006;2023-02-03T09:02:24;101377.59;;;5.88;73.68
71643;BME280;59438;45.014;39.006;2023-02-03T09:04:53;101372.34;;;5.93;72.91
71643;BME280;59438;45.014;39.006;2023-02-03T09:07:19;101371.47;;;5.97;73.16
71643;BME280;59438;45.014;39.006;2023-02-03T09:09:46;101277.09;;;5.45;73.16
71643;BME280;59438;45.014;39.006;2023-02-03T09:12:15;101269.25;;;5.47;73.02
71643;BME280;59438;45.014;39.006;2023-02-03T09:14:47;101340.91;;;6.13;72.32
71643;BME280;59438;45.014;39.006;2023-02-03T09:17:16;101327.94;;;6.10;73.09
71643;BME280;59438;45.014;39.006;2023-02-03T09:19:47;101358.16;;;6.31;72.92
71643;BME280;59438;45.014;39.006;2023-02-03T09:22:13;101336.50;;;6.24;72.12
71643;BME280;59438;45.014;39.006;2023-02-03T09:24:40;101332.16;;;6.21;72.49
71643;BME280;59438;45.014;39.006;2023-02-03T09:27:06;101356.41;;;6.34;72.48
71643;BME280;59438;45.014;39.006;2023-02-03T09:29:34;101337.44;;;6.14;71.83
71643;BME280;59438;45.014;39.006;2023-02-03T09:32:01;101359.06;;;6.27;72.13
71643;BME280;59438;45.014;39.006;2023-02-03T09:34:27;101296.84;;;5.77;72.56
71643;BME280;59438;45.014;39.006;2023-02-03T09:36:53;101316.75;;;5.95;72.83
71643;BME280;59438;45.014;39.006;2023-02-03T09:39:20;101268.22;;;5.70;72.77
71643;BME280;59438;45.014;39.006;2023-02-03T09:42:13;101316.69;;;6.01;72.05
71643;BME280;59438;45.014;39.006;2023-02-03T09:44:51;101340.13;;;6.06;72.38
71643;BME280;59438;45.014;39.006;2023-02-03T09:47:23;101334.06;;;6.04;72.67
71643;BME280;59438;45.014;39.006;2023-02-03T09:49:54;101275.19;;;5.71;72.61
71643;BME280;59438;45.014;39.006;2023-02-03T09:52:23;101270.03;;;5.63;72.21
71643;BME280;59438;45.014;39.006;2023-02-03T09:54:55;101357.44;;;6.13;72.66
71643;BME280;59438;45.014;39.006;2023-02-03T09:57:24;101265.72;;;5.57;73.05
71643;BME280;59438;45.014;39.006;2023-02-03T09:59:53;101338.41;;;6.00;73.39
71643;BME280;59438;45.014;39.006;2023-02-03T10:02:36;101340.97;;;6.08;72.84
71643;BME280;59438;45.014;39.006;2023-02-03T10:05:21;101335.84;;;5.97;73.76
71643;BME280;59438;45.014;39.006;2023-02-03T10:07:57;101320.34;;;5.73;73.76
71643;BME280;59438;45.014;39.006;2023-02-03T10:10:35;101317.72;;;5.76;73.50
71643;BME280;59438;45.014;39.006;2023-02-03T10:13:09;101310.88;;;5.58;74.17
71643;BME280;59438;45.014;39.006;2023-02-03T10:16:02;101335.00;;;5.86;74.32
71643;BME280;59438;45.014;39.006;2023-02-03T10:18:35;101335.91;;;5.85;74.16
71643;BME280;59438;45.014;39.006;2023-02-03T10:21:04;101289.22;;;5.53;73.65
71643;BME280;59438;45.014;39.006;2023-02-03T10:23:40;101284.84;;;5.52;73.57
71643;BME280;59438;45.014;39.006;2023-02-03T10:26:11;101315.06;;;5.83;73.69
71643;BME280;59438;45.014;39.006;2023-02-03T10:28:44;101251.91;;;5.44;74.47
71643;BME280;59438;45.014;39.006;2023-02-03T10:31:19;101230.34;;;5.25;74.22
71643;BME280;59438;45.014;39.006;2023-02-03T10:33:46;101316.81;;;5.80;74.44
71643;BME280;59438;45.014;39.006;2023-02-03T10:36:18;101262.31;;;5.48;74.38
71643;BME280;59438;45.014;39.006;2023-02-03T10:38:52;101258.84;;;5.45;73.87
71643;BME280;59438;45.014;39.006;2023-02-03T10:41:22;101310.69;;;5.84;74.19
71643;BME280;59438;45.014;39.006;2023-02-03T10:43:49;101200.00;;;5.18;73.61
71643;BME280;59438;45.014;39.006;2023-02-03T10:46:19;101281.34;;;5.56;74.20
71643;BME280;59438;45.014;39.006;2023-02-03T10:48:46;101211.31;;;5.17;73.33
71643;BME280;59438;45.014;39.006;2023-02-03T10:51:18;101237.19;;;5.39;74.24
71643;BME280;59438;45.014;39.006;2023-02-03T10:53:46;101281.34;;;5.57;74.42
71643;BME280;59438;45.014;39.006;2023-02-03T10:56:13;101242.44;;;5.34;74.19
71643;BME280;59438;45.014;39.006;2023-02-03T10:58:46;101269.22;;;5.52;74.66
71643;BME280;59438;45.014;39.006;2023-02-03T11:01:16;101176.78;;;4.86;74.33
71643;BME280;59438;45.014;39.006;2023-02-03T11:03:54;101257.16;;;5.38;75.30
71643;BME280;59438;45.014;39.006;2023-02-03T11:06:21;101218.31;;;5.08;74.46
71643;BME280;59438;45.014;39.006;2023-02-03T11:08:49;101190.66;;;4.87;74.63
71643;BME280;59438;45.014;39.006;2023-02-03T11:11:20;101215.69;;;5.11;74.71
71643;BME280;59438;45.014;39.006;2023-02-03T11:13:51;101283.97;;;5.56;74.98
71643;BME280;59438;45.014;39.006;2023-02-03T11:16:21;101296.94;;;5.67;74.48
71643;BME280;59438;45.014;39.006;2023-02-03T11:18:54;101293.47;;;5.63;75.07
71643;BME280;59438;45.014;39.006;2023-02-03T11:21:24;101175.94;;;4.84;74.51
71643;BME280;59438;45.014;39.006;2023-02-03T11:24:03;101204.34;;;5.16;76.17
71643;BME280;59438;45.014;39.006;2023-02-03T11:26:33;101263.28;;;5.34;75.85
71643;BME280;59438;45.014;39.006;2023-02-03T11:29:04;101200.03;;;5.14;75.48
71643;BME280;59438;45.014;39.006;2023-02-03T11:31:33;101188.03;;;4.90;75.28
71643;BME280;59438;45.014;39.006;2023-02-03T11:34:03;101180.25;;;4.88;75.60
71643;BME280;59438;45.014;39.006;2023-02-03T11:36:32;101254.63;;;5.29;75.62
71643;BME280;59438;45.014;39.006;2023-02-03T11:39:19;101308.31;;;5.53;76.91
71643;BME280;59438;45.014;39.006;2023-02-03T11:41:46;101252.97;;;5.19;75.42
71643;BME280;59438;45.014;39.006;2023-02-03T11:44:20;101327.44;;;5.49;76.26
71643;BME280;59438;45.014;39.006;2023-02-03T11:46:49;101325.72;;;5.47;75.80
71643;BME280;59438;45.014;39.006;2023-02-03T11:52:34;101253.97;;;4.93;76.06
71643;BME280;59438;45.014;39.006;2023-02-03T11:55:13;101306.84;;;5.09;75.32
71643;BME280;59438;45.014;39.006;2023-02-03T11:58:10;101191.72;;;4.42;75.70
71643;BME280;59438;45.014;39.006;2023-02-03T12:00:47;101270.53;;;4.72;75.38
71643;BME280;59438;45.014;39.006;2023-02-03T12:03:28;101289.63;;;4.71;75.46
71643;BME280;59438;45.014;39.006;2023-02-03T12:06:26;101308.66;;;4.89;75.85
71643;BME280;59438;45.014;39.006;2023-02-03T12:09:15;101260.19;;;4.58;75.84
71643;BME280;59438;45.014;39.006;2023-02-03T12:12:00;101270.59;;;4.58;76.21
71643;BME280;59438;45.014;39.006;2023-02-03T12:14:44;101294.88;;;4.63;76.39
71643;BME280;59438;45.014;39.006;2023-02-03T12:17:37;101315.63;;;4.82;76.51
71643;BME280;59438;45.014;39.006;2023-02-03T12:20:26;101283.59;;;4.61;76.62
71643;BME280;59438;45.014;39.006;2023-02-03T12:23:04;101290.53;;;4.64;76.65
71643;BME280;59438;45.014;39.006;2023-02-03T12:25:45;101240.28;;;4.43;76.49
71643;BME280;59438;45.014;39.006;2023-02-03T12:28:28;101223.84;;;4.37;76.43
71643;BME280;59438;45.014;39.006;2023-02-03T12:45:12;101307.84;;;4.73;77.93
71643;BME280;59438;45.014;39.006;2023-02-03T12:47:41;101315.59;;;4.91;77.15
71643;BME280;59438;45.014;39.006;2023-02-03T12:50:16;101306.91;;;4.98;76.75
71643;BME280;59438;45.014;39.006;2023-02-03T12:52:46;101291.28;;;4.92;76.26
71643;BME280;59438;45.014;39.006;2023-02-03T12:55:20;101316.41;;;5.01;76.26
71643;BME280;59438;45.014;39.006;2023-02-03T12:57:50;101302.56;;;4.94;75.89
71643;BME280;59438;45.014;39.006;2023-02-03T13:00:24;101319.03;;;5.01;75.93
71643;BME280;59438;45.014;39.006;2023-02-03T13:03:01;101304.28;;;4.94;76.17
71643;BME280;59438;45.014;39.006;2023-02-03T13:05:36;101292.16;;;4.91;76.23
71643;BME280;59438;45.014;39.006;2023-02-03T13:08:15;101304.25;;;5.00;76.13
71643;BME280;59438;45.014;39.006;2023-02-03T13:10:46;101287.81;;;4.93;76.01
71643;BME280;59438;45.014;39.006;2023-02-03T13:13:15;101296.41;;;5.06;76.39
71643;BME280;59438;45.014;39.006;2023-02-03T13:15:49;101293.84;;;5.00;75.58
71643;BME280;59438;45.014;39.006;2023-02-03T13:18:22;101266.19;;;4.73;76.21
71643;BME280;59438;45.014;39.006;2023-02-03T13:20:50;101292.16;;;4.91;75.82
71643;BME280;59438;45.014;39.006;2023-02-03T13:23:16;101276.59;;;4.79;75.46